Time;durP1;ratioP1;P1;durP2;ratioP2;P2;SDS_P1;SDS_P2;PMS_P1;PMS_P2;Temp;Humidity;BMP_temperature;BMP_pressure;BME280_temperature;BME280_humidity;BME280_pressure;Samples;Min_cycle;Max_cycle;Signal;HPM_P1;HPM_P2
2021/08/19 00:09:45;;;;;;;12.93;11.53;;;17.90;99.90;;;;;;5471335;23;20485;-91
2021/08/19 00:12:12;;;;;;;12.40;11.30;;;20.10;99.90;;;;;;5000654;28;20480;-91
2021/08/19 00:14:42;;;;;;;10.97;10.00;;;19.60;99.90;;;;;;5019289;28;20385;-91
2021/08/19 00:17:56;;;;;;;12.80;11.03;;;20.00;99.90;;;;;;5019130;28;20468;-91
2021/08/19 00:25:38;;;;;;;12.33;11.13;;;17.90;99.90;;;;;;2620519;23;20776;-91
2021/08/19 00:38:54;;;;;;;12.80;11.00;;;17.80;99.90;;;;;;5547035;23;20477;-92
2021/08/19 00:41:23;;;;;;;13.33;11.47;;;17.80;99.90;;;;;;5068797;23;20540;-91
2021/08/19 00:55:03;;;;;;;13.60;12.50;;;19.60;99.90;;;;;;4999177;28;20417;-91
2021/08/19 00:57:42;;;;;;;13.13;11.83;;;18.20;99.90;;;;;;4998163;28;20512;-91
2021/08/19 01:10:48;;;;;;;11.73;10.70;;;17.80;99.90;;;;;;4627386;23;20488;-92
2021/08/19 01:13:14;;;;;;;13.30;11.90;;;18.20;99.90;;;;;;4999823;28;20408;-90
2021/08/19 01:15:43;;;;;;;16.27;11.50;;;19.80;99.90;;;;;;4998785;28;20421;-91
2021/08/19 01:18:09;;;;;;;13.23;11.93;;;17.30;99.90;;;;;;5018242;28;20413;-91
2021/08/19 01:20:40;;;;;;;14.27;12.30;;;18.60;99.90;;;;;;4999486;28;20475;-90
2021/08/19 01:23:12;;;;;;;11.40;10.40;;;17.90;99.90;;;;;;4999650;28;20173;-90
2021/08/19 01:25:49;;;;;;;11.20;10.10;;;20.10;99.90;;;;;;4999584;28;20423;-90
2021/08/19 01:28:18;;;;;;;11.70;10.60;;;19.60;99.90;;;;;;4999117;28;20455;-90
2021/08/19 01:31:03;;;;;;;13.60;11.00;;;20.90;99.90;;;;;;5015113;28;20507;-91
2021/08/19 01:34:05;;;;;;;11.50;10.53;;;17.90;99.90;;;;;;5017044;28;20443;-91
2021/08/19 01:36:43;;;;;;;12.93;11.63;;;18.90;99.90;;;;;;4997929;28;20459;-92
2021/08/19 01:39:13;;;;;;;10.53;9.50;;;18.50;99.90;;;;;;5178501;23;20493;-92
2021/08/19 01:42:02;;;;;;;13.03;11.70;;;19.00;99.90;;;;;;4980853;28;20428;-91
2021/08/19 01:45:16;;;;;;;16.00;12.47;;;22.00;99.90;;;;;;4979900;28;20413;-91
2021/08/19 01:55:43;;;;;;;13.90;11.80;;;17.90;99.90;;;;;;5493068;23;20459;-91
2021/08/19 02:03:20;;;;;;;12.23;11.20;;;17.80;99.90;;;;;;5255390;23;20516;-89
2021/08/19 02:08:47;;;;;;;12.60;11.30;;;20.50;99.90;;;;;;4991119;28;20482;-90
2021/08/19 02:11:33;;;;;;;12.27;11.13;;;21.60;99.90;;;;;;4986733;28;20440;-91
2021/08/19 02:14:02;;;;;;;12.63;10.80;;;18.40;99.90;;;;;;4983012;28;20429;-91
2021/08/19 02:16:50;;;;;;;11.77;10.80;;;18.50;99.90;;;;;;4982407;28;20420;-91
2021/08/19 02:19:46;;;;;;;11.90;10.77;;;19.50;99.90;;;;;;4967773;28;20417;-93
2021/08/19 02:22:49;;;;;;;11.73;10.83;;;18.00;99.90;;;;;;4981652;28;20449;-90
2021/08/19 02:25:35;;;;;;;12.93;11.70;;;19.10;99.90;;;;;;4978954;28;20453;-91
2021/08/19 02:28:04;;;;;;;14.70;11.33;;;19.00;99.90;;;;;;4967209;28;20472;-92
2021/08/19 02:30:43;;;;;;;12.67;11.37;;;20.10;99.90;;;;;;4982143;28;20438;-93
2021/08/19 02:33:27;;;;;;;12.13;10.80;;;21.50;99.90;;;;;;4997970;28;20417;-90
2021/08/19 02:36:52;;;;;;;13.40;11.23;;;19.30;99.90;;;;;;4982954;28;20414;-93
2021/08/19 02:39:30;;;;;;;11.73;10.83;;;18.80;99.90;;;;;;5453989;23;20472;-90
2021/08/19 02:57:51;;;;;;;13.73;12.37;;;17.60;99.90;;;;;;5062003;23;20471;-92
2021/08/19 03:00:22;;;;;;;14.93;11.73;;;19.60;99.90;;;;;;5018372;28;20416;-92
2021/08/19 03:03:00;;;;;;;17.30;11.93;;;17.20;99.90;;;;;;5018269;28;20432;-93
2021/08/19 03:05:50;;;;;;;13.23;12.03;;;18.00;99.90;;;;;;5003720;28;20436;-94
2021/08/19 03:08:42;;;;;;;14.20;12.90;;;19.00;99.90;;;;;;5000307;28;20456;-93
2021/08/19 03:11:35;;;;;;;13.17;11.90;;;20.50;99.90;;;;;;4996010;28;20478;-90
2021/08/19 03:14:48;;;;;;;13.57;11.93;;;17.70;99.90;;;;;;5016880;28;20421;-91
2021/08/19 03:17:29;;;;;;;13.00;11.70;;;18.90;99.90;;;;;;5002413;28;20427;-89
2021/08/19 03:20:34;;;;;;;13.37;12.00;;;18.90;99.90;;;;;;5019664;28;20400;-90
2021/08/19 03:23:36;;;;;;;12.03;10.97;;;19.00;99.90;;;;;;5003045;28;20483;-93
2021/08/19 03:26:07;;;;;;;12.27;10.97;;;17.90;99.90;;;;;;5169440;23;20464;-89
2021/08/19 03:28:33;;;;;;;12.07;10.97;;;18.00;99.90;;;;;;5003348;28;20534;-90
2021/08/19 03:31:00;;;;;;;12.10;10.87;;;19.70;99.90;;;;;;5018608;28;20428;-91
2021/08/19 03:33:26;;;;;;;12.37;11.27;;;19.70;99.90;;;;;;5001608;28;20455;-91
2021/08/19 03:35:53;;;;;;;11.73;10.53;;;17.90;99.90;;;;;;5001402;28;20456;-90
2021/08/19 03:38:18;;;;;;;13.70;12.30;;;18.80;99.90;;;;;;4985419;28;20425;-92
2021/08/19 03:40:44;;;;;;;12.10;11.03;;;15.00;99.90;;;;;;5016905;28;20467;-91
2021/08/19 03:43:10;;;;;;;12.80;11.57;;;15.10;99.90;;;;;;4984788;28;20205;-91
2021/08/19 03:45:37;;;;;;;12.30;11.00;;;20.30;99.90;;;;;;5106354;23;20245;-90
2021/08/19 03:50:50;;;;;;;12.47;11.20;;;17.50;99.90;;;;;;5170925;22;20497;-91
2021/08/19 03:53:17;;;;;;;12.77;11.47;;;20.20;99.90;;;;;;4982696;28;20469;-91
2021/08/19 03:55:43;;;;;;;13.57;12.27;;;18.30;99.90;;;;;;5071897;23;20549;-90
2021/08/19 03:58:21;;;;;;;18.50;12.70;;;18.50;99.90;;;;;;4982729;28;20417;-90
2021/08/19 04:08:40;;;;;;;18.03;15.17;;;17.20;99.90;;;;;;4106783;23;20955;-90
2021/08/19 04:11:07;;;;;;;17.10;14.03;;;17.30;99.90;;;;;;5130095;23;20504;-89
2021/08/19 04:16:10;;;;;;;20.10;16.00;;;17.20;99.90;;;;;;2891081;23;21644;-90
2021/08/19 04:18:35;;;;;;;17.07;15.10;;;19.80;99.90;;;;;;4980545;28;20453;-89
2021/08/19 04:21:02;;;;;;;21.43;15.30;;;17.40;99.90;;;;;;4996816;28;20437;-91
2021/08/19 04:23:29;;;;;;;18.03;14.00;;;18.50;99.90;;;;;;4996884;28;20213;-90
2021/08/19 04:25:58;;;;;;;19.50;14.20;;;17.40;99.90;;;;;;5033992;23;20507;-89
2021/08/19 04:28:27;;;;;;;17.47;15.20;;;18.80;99.90;;;;;;4999151;28;20542;-91
2021/08/19 04:30:54;;;;;;;15.83;14.10;;;18.40;99.90;;;;;;4997492;28;20428;-89
2021/08/19 04:38:33;;;;;;;16.13;14.50;;;17.30;99.90;;;;;;5220997;23;20487;-88
2021/08/19 04:41:08;;;;;;;16.10;13.00;;;17.20;99.90;;;;;;5000738;28;20416;-91
2021/08/19 04:46:21;;;;;;;14.88;13.32;;;17.20;99.90;;;;;;5147883;23;1573502;-90
2021/08/19 04:48:47;;;;;;;13.77;12.43;;;19.10;99.90;;;;;;4997102;28;20201;-91
2021/08/19 04:51:17;;;;;;;15.70;14.10;;;17.00;99.90;;;;;;4997403;28;20436;-91
2021/08/19 04:53:50;;;;;;;16.37;12.57;;;17.30;99.90;;;;;;5012979;28;20436;-93
2021/08/19 04:57:11;;;;;;;14.27;12.90;;;19.20;99.90;;;;;;5014337;28;20420;-91
2021/08/19 05:05:32;;;;;;;19.80;16.23;;;17.30;99.90;;;;;;5140425;23;20484;-91
2021/08/19 05:07:59;;;;;;;28.83;15.97;;;18.30;99.90;;;;;;4994580;28;20453;-91
2021/08/19 05:10:28;;;;;;;17.27;15.27;;;15.60;99.90;;;;;;4994448;28;20432;-90
2021/08/19 05:12:53;;;;;;;16.03;14.43;;;18.30;99.90;;;;;;4978221;28;20416;-90
2021/08/19 05:15:26;;;;;;;17.57;15.77;;;17.70;99.90;;;;;;5011239;28;20424;-91
2021/08/19 05:17:58;;;;;;;16.33;14.47;;;17.90;99.90;;;;;;5071285;23;20479;-91
2021/08/19 05:20:24;;;;;;;18.60;14.40;;;17.10;99.90;;;;;;4994869;28;20451;-91
2021/08/19 05:22:50;;;;;;;19.93;16.33;;;16.80;99.90;;;;;;4991829;28;20408;-91
2021/08/19 05:25:16;;;;;;;20.13;16.70;;;17.20;99.90;;;;;;5008441;28;20558;-90
2021/08/19 05:27:42;;;;;;;20.37;15.40;;;17.70;99.90;;;;;;4992305;28;20233;-88
2021/08/19 05:30:17;;;;;;;18.03;16.33;;;20.20;99.90;;;;;;4992385;28;20629;-91
2021/08/19 05:35:26;;;;;;;16.93;15.07;;;17.40;99.90;;;;;;5059495;23;20495;-87
2021/08/19 05:37:57;;;;;;;19.27;15.87;;;20.50;99.90;;;;;;4989721;28;20416;-92
2021/08/19 05:40:23;;;;;;;15.67;13.87;;;17.90;99.90;;;;;;4970645;28;20213;-88
2021/08/19 05:42:49;;;;;;;16.93;15.33;;;18.40;99.90;;;;;;5003203;28;20419;-91
2021/08/19 05:45:20;;;;;;;16.53;14.83;;;18.10;99.90;;;;;;5006887;28;20169;-91
2021/08/19 05:47:46;;;;;;;16.50;14.50;;;17.60;99.90;;;;;;4989674;28;20708;-91
2021/08/19 05:50:12;;;;;;;15.17;13.67;;;18.60;99.90;;;;;;4991226;28;20416;-92
2021/08/19 05:52:45;;;;;;;15.87;14.13;;;19.50;99.90;;;;;;4991596;28;20184;-92
2021/08/19 05:55:10;;;;;;;16.93;15.23;;;17.70;99.90;;;;;;4988889;28;20216;-90
2021/08/19 05:57:36;;;;;;;17.53;14.80;;;17.40;99.90;;;;;;5008091;28;20423;-88
2021/08/19 06:00:05;;;;;;;19.90;14.40;;;17.30;99.90;;;;;;4990288;28;20184;-90
2021/08/19 06:02:31;;;;;;;14.60;13.17;;;17.70;99.90;;;;;;4987249;28;20425;-89
2021/08/19 06:04:57;;;;;;;19.07;13.00;;;18.90;99.90;;;;;;5006858;28;20459;-91
2021/08/19 06:07:23;;;;;;;13.20;11.90;;;17.70;99.90;;;;;;4990778;28;20169;-88
2021/08/19 06:09:49;;;;;;;12.97;11.50;;;17.60;99.90;;;;;;5011726;28;20431;-89
2021/08/19 06:12:15;;;;;;;12.90;11.43;;;17.40;99.90;;;;;;4992191;28;20421;-90
2021/08/19 06:14:42;;;;;;;13.63;12.33;;;19.10;99.90;;;;;;5006130;28;20586;-90
2021/08/19 06:17:07;;;;;;;12.67;11.60;;;17.70;99.90;;;;;;4992497;28;20196;-89
2021/08/19 06:19:36;;;;;;;13.07;11.80;;;20.20;99.90;;;;;;4988807;28;20432;-91
2021/08/19 06:22:01;;;;;;;12.50;11.40;;;17.10;99.90;;;;;;4991576;28;20257;-90
2021/08/19 06:24:27;;;;;;;13.13;12.10;;;17.70;99.90;;;;;;4994047;28;20412;-90
2021/08/19 06:26:54;;;;;;;14.03;10.37;;;19.40;99.90;;;;;;4992569;28;20648;-91
2021/08/19 06:29:24;;;;;;;12.83;11.57;;;17.90;99.90;;;;;;4655563;28;10000425;-90
2021/08/19 06:31:54;;;;;;;11.80;10.80;;;16.20;99.90;;;;;;5030446;28;20408;-91
2021/08/19 06:34:20;;;;;;;12.40;11.33;;;19.30;99.90;;;;;;5029638;28;20501;-91
2021/08/19 06:36:47;;;;;;;12.87;11.67;;;18.80;99.90;;;;;;5031537;28;20400;-90
2021/08/19 06:39:12;;;;;;;13.20;12.00;;;17.10;99.90;;;;;;5027134;28;20179;-91
2021/08/19 06:41:39;;;;;;;12.63;10.90;;;17.80;99.90;;;;;;5011348;28;20420;-86
2021/08/19 06:44:05;;;;;;;13.13;11.83;;;18.00;99.90;;;;;;5012642;28;20628;-92
2021/08/19 06:46:31;;;;;;;11.13;10.23;;;19.30;99.90;;;;;;5010552;28;20445;-91
2021/08/19 06:48:56;;;;;;;13.63;11.90;;;19.40;99.90;;;;;;5030197;28;20235;-87
2021/08/19 06:51:24;;;;;;;12.70;11.47;;;19.50;99.90;;;;;;5034096;28;20169;-90
2021/08/19 06:53:50;;;;;;;12.33;11.17;;;17.10;99.90;;;;;;5034681;28;20223;-90
2021/08/19 06:56:16;;;;;;;10.93;9.93;;;18.00;99.90;;;;;;5020787;28;20423;-90
2021/08/19 06:58:42;;;;;;;11.77;10.63;;;18.60;99.90;;;;;;5033654;28;20178;-89
2021/08/19 07:01:10;;;;;;;11.00;10.20;;;19.10;99.90;;;;;;5013666;28;20195;-91
2021/08/19 07:03:39;;;;;;;12.40;11.30;;;17.40;99.90;;;;;;5011461;28;20192;-91
2021/08/19 07:06:24;;;;;;;11.90;10.87;;;18.00;99.90;;;;;;5015873;28;20440;-90
2021/08/19 07:08:49;;;;;;;14.00;12.60;;;19.90;99.90;;;;;;4999907;28;20505;-85
2021/08/19 07:11:15;;;;;;;11.37;10.50;;;19.40;99.90;;;;;;5015315;28;20423;-90
2021/08/19 07:13:41;;;;;;;13.57;12.37;;;17.30;99.90;;;;;;4992164;28;20216;-89
2021/08/19 07:16:08;;;;;;;12.30;11.20;;;18.70;99.90;;;;;;5018524;28;20417;-88
2021/08/19 07:18:38;;;;;;;13.17;11.77;;;16.40;99.90;;;;;;4979309;28;20429;-91
2021/08/19 07:21:07;;;;;;;12.50;11.27;;;19.30;99.90;;;;;;4966042;28;20204;-91
2021/08/19 07:23:41;;;;;;;12.33;11.03;;;17.20;99.90;;;;;;5007801;28;20511;-90
2021/08/19 07:26:08;;;;;;;12.70;11.53;;;18.70;99.90;;;;;;5006464;28;20413;-93
2021/08/19 07:28:43;;;;;;;14.33;11.53;;;18.70;99.90;;;;;;5004457;28;20506;-90
2021/08/19 07:31:10;;;;;;;13.80;11.50;;;18.70;99.90;;;;;;5006138;28;20417;-90
2021/08/19 07:33:36;;;;;;;13.80;12.50;;;18.10;99.90;;;;;;4996834;28;20428;-88
2021/08/19 07:36:05;;;;;;;12.70;11.60;;;18.10;99.90;;;;;;4994207;28;20430;-90
2021/08/19 07:38:31;;;;;;;12.73;11.50;;;19.30;99.90;;;;;;4987359;28;20181;-89
2021/08/19 07:41:00;;;;;;;15.33;12.70;;;20.80;99.90;;;;;;5002320;28;20419;-90
2021/08/19 07:43:28;;;;;;;11.83;10.60;;;18.20;99.80;;;;;;5008811;28;20413;-90
2021/08/19 07:45:57;;;;;;;13.50;12.23;;;20.10;99.90;;;;;;4987500;28;20589;-91
2021/08/19 07:48:23;;;;;;;13.90;12.60;;;20.10;99.90;;;;;;4988554;28;20210;-89
2021/08/19 07:50:51;;;;;;;12.20;11.00;;;20.70;99.90;;;;;;4989049;28;20408;-92
2021/08/19 07:53:17;;;;;;;13.87;12.53;;;18.30;99.70;;;;;;4989157;28;20436;-89
2021/08/19 07:55:42;;;;;;;13.93;12.53;;;18.40;99.90;;;;;;4989547;28;20404;-87
2021/08/19 07:58:13;;;;;;;12.63;11.60;;;20.60;99.90;;;;;;5005885;28;20421;-89
2021/08/19 08:00:39;;;;;;;12.10;10.60;;;18.50;99.50;;;;;;4986712;28;20422;-89
2021/08/19 08:03:26;;;;;;;11.33;10.33;;;17.50;99.90;;;;;;4977719;28;20442;-88
2021/08/19 08:05:58;;;;;;;14.53;12.87;;;18.90;99.90;;;;;;4964004;28;20429;-89
2021/08/19 08:08:26;;;;;;;13.53;12.13;;;18.30;99.60;;;;;;4953248;28;20473;-91
2021/08/19 08:10:52;;;;;;;15.63;12.53;;;18.50;99.90;;;;;;4965278;28;20481;-88
2021/08/19 08:13:18;;;;;;;13.83;12.53;;;17.80;98.90;;;;;;4984287;28;20789;-91
2021/08/19 08:15:43;;;;;;;13.63;12.33;;;19.90;99.90;;;;;;4985082;28;20170;-91
2021/08/19 08:18:16;;;;;;;13.17;11.87;;;18.30;99.30;;;;;;4984280;28;20166;-89
2021/08/19 08:20:48;;;;;;;13.20;11.87;;;18.20;99.10;;;;;;4974680;28;20502;-92
2021/08/19 08:23:23;;;;;;;13.87;12.57;;;18.70;99.00;;;;;;4967860;28;20425;-90
2021/08/19 08:25:49;;;;;;;14.57;13.30;;;20.10;99.90;;;;;;4953768;28;20416;-87
2021/08/19 08:28:26;;;;;;;15.23;13.73;;;18.40;99.00;;;;;;4983692;28;20471;-91
2021/08/19 08:30:54;;;;;;;15.20;13.80;;;20.90;99.90;;;;;;4966191;28;20429;-87
2021/08/19 08:33:21;;;;;;;13.80;12.30;;;18.20;99.30;;;;;;4985943;28;20405;-89
2021/08/19 08:35:48;;;;;;;14.63;13.13;;;18.90;99.60;;;;;;5002445;28;20459;-89
2021/08/19 08:38:16;;;;;;;20.00;14.37;;;20.90;99.90;;;;;;5003949;28;20413;-87
2021/08/19 08:40:45;;;;;;;17.43;13.33;;;18.00;98.60;;;;;;4986827;28;20421;-88
2021/08/19 08:43:20;;;;;;;16.33;14.63;;;19.40;99.70;;;;;;4966988;28;20516;-88
2021/08/19 08:45:47;;;;;;;14.57;13.10;;;18.40;99.40;;;;;;4966925;28;20432;-90
2021/08/19 08:48:22;;;;;;;15.47;14.07;;;18.10;99.90;;;;;;4966487;28;20480;-90
2021/08/19 08:50:51;;;;;;;16.03;14.43;;;18.30;99.90;;;;;;4963724;28;20417;-88
2021/08/19 08:53:16;;;;;;;16.30;14.80;;;20.60;99.90;;;;;;4980187;28;20504;-86
2021/08/19 08:55:43;;;;;;;16.20;14.50;;;20.80;99.90;;;;;;4947054;28;20449;-87
2021/08/19 08:58:10;;;;;;;17.40;14.07;;;20.60;99.90;;;;;;4962307;28;20192;-90
2021/08/19 09:00:39;;;;;;;16.30;14.73;;;20.60;99.90;;;;;;4962882;28;20778;-89
2021/08/19 09:03:07;;;;;;;18.20;16.40;;;17.70;99.20;;;;;;4962844;28;20772;-90
2021/08/19 09:05:42;;;;;;;15.97;14.10;;;18.30;99.50;;;;;;4979751;28;20410;-91
2021/08/19 09:08:14;;;;;;;16.53;15.13;;;18.60;99.50;;;;;;4980828;28;20528;-86
2021/08/19 09:10:39;;;;;;;17.97;14.27;;;18.50;98.70;;;;;;4979643;28;20417;-86
2021/08/19 09:13:07;;;;;;;16.60;15.10;;;17.60;97.60;;;;;;4988927;28;20416;-88
2021/08/19 09:15:32;;;;;;;16.43;14.03;;;18.30;98.20;;;;;;4999477;28;20185;-90
2021/08/19 09:18:00;;;;;;;17.07;13.73;;;18.90;98.60;;;;;;4981947;28;20420;-89
2021/08/19 09:20:37;;;;;;;15.20;13.70;;;21.80;99.90;;;;;;5004487;28;20229;-90
2021/08/19 09:23:11;;;;;;;15.97;14.53;;;19.10;96.50;;;;;;4973768;28;20427;-89
2021/08/19 09:25:42;;;;;;;15.57;13.30;;;19.10;96.30;;;;;;4984873;28;20412;-88
2021/08/19 09:28:16;;;;;;;17.70;13.10;;;19.10;96.60;;;;;;4984318;28;20468;-90
2021/08/19 09:30:48;;;;;;;14.93;13.53;;;19.20;95.90;;;;;;4966364;28;20419;-89
2021/08/19 09:33:17;;;;;;;15.23;13.73;;;18.90;96.10;;;;;;4300406;28;10000172;-89
2021/08/19 09:35:45;;;;;;;15.10;13.80;;;18.70;96.10;;;;;;5021667;28;20224;-88
2021/08/19 09:38:14;;;;;;;14.53;13.17;;;20.90;97.80;;;;;;5005057;28;20431;-83
2021/08/19 09:40:40;;;;;;;15.23;12.63;;;17.50;95.90;;;;;;5005596;28;20481;-86
2021/08/19 09:43:06;;;;;;;16.90;14.00;;;17.40;95.90;;;;;;5020619;28;20411;-90
2021/08/19 09:45:41;;;;;;;15.50;13.93;;;18.70;98.30;;;;;;4997235;28;20809;-89
2021/08/19 09:48:09;;;;;;;17.17;15.50;;;20.90;99.00;;;;;;4971709;28;21009;-88
2021/08/19 09:50:35;;;;;;;18.50;16.50;;;20.40;98.80;;;;;;4999967;28;20470;-89
2021/08/19 09:53:26;;;;;;;15.70;14.40;;;18.60;97.90;;;;;;4985313;28;20429;-89
2021/08/19 09:55:53;;;;;;;16.33;13.40;;;19.50;99.60;;;;;;4974271;28;20432;-88
2021/08/19 09:58:29;;;;;;;18.07;14.47;;;20.40;98.90;;;;;;4982351;28;20496;-86
2021/08/19 10:00:54;;;;;;;22.00;15.00;;;20.50;98.00;;;;;;4983010;28;20768;-86
2021/08/19 10:03:20;;;;;;;14.83;13.30;;;18.80;96.60;;;;;;5007753;28;20431;-92
2021/08/19 10:06:11;;;;;;;14.43;13.00;;;19.00;96.60;;;;;;5021557;28;20207;-88
2021/08/19 10:08:43;;;;;;;15.00;13.50;;;17.50;94.90;;;;;;5003806;28;21017;-87
2021/08/19 10:11:18;;;;;;;14.00;12.50;;;19.90;97.20;;;;;;5025297;28;20407;-88
2021/08/19 10:13:47;;;;;;;16.33;12.00;;;19.50;95.20;;;;;;5028959;28;20465;-88
2021/08/19 10:16:16;;;;;;;14.10;12.70;;;20.90;94.40;;;;;;5034714;28;20403;-87
2021/08/19 10:18:43;;;;;;;11.27;10.37;;;21.80;94.10;;;;;;5032555;28;20487;-85
2021/08/19 10:21:17;;;;;;;12.00;11.10;;;19.10;90.80;;;;;;5020868;28;20432;-87
2021/08/19 10:23:47;;;;;;;14.67;13.47;;;18.90;89.50;;;;;;5019291;28;20498;-90
2021/08/19 10:26:22;;;;;;;11.87;10.40;;;21.60;88.20;;;;;;5017885;28;20491;-89
2021/08/19 10:28:59;;;;;;;11.00;10.30;;;23.30;90.00;;;;;;4999110;28;20474;-89
2021/08/19 10:31:43;;;;;;;12.30;11.30;;;21.20;85.40;;;;;;5017638;28;20494;-88
2021/08/19 10:34:12;;;;;;;10.73;9.70;;;21.10;87.30;;;;;;5002116;28;20467;-89
2021/08/19 10:36:47;;;;;;;12.30;11.10;;;23.00;90.50;;;;;;5017797;28;20411;-89
2021/08/19 10:39:25;;;;;;;9.97;9.10;;;20.00;89.30;;;;;;4982860;28;20412;-87
2021/08/19 10:41:57;;;;;;;10.00;9.30;;;21.50;92.00;;;;;;4982108;28;20428;-89
2021/08/19 10:44:35;;;;;;;10.50;9.63;;;21.50;90.80;;;;;;4997777;28;20448;-89
2021/08/19 10:47:03;;;;;;;11.03;10.03;;;21.90;91.10;;;;;;4969929;28;20425;-87
2021/08/19 10:49:32;;;;;;;10.00;9.40;;;20.50;90.20;;;;;;4980912;28;21018;-87
2021/08/19 10:52:09;;;;;;;10.43;9.53;;;20.70;90.00;;;;;;4999783;28;20532;-90
2021/08/19 10:54:50;;;;;;;9.87;9.17;;;19.00;87.60;;;;;;4981992;28;20427;-92
2021/08/19 10:57:23;;;;;;;10.17;9.43;;;21.00;84.40;;;;;;4981081;28;20412;-88
2021/08/19 10:59:57;;;;;;;9.33;8.63;;;21.60;82.70;;;;;;4981229;28;20923;-89
2021/08/19 11:02:54;;;;;;;9.23;8.73;;;23.40;83.00;;;;;;4983917;28;20993;-91
2021/08/19 11:05:20;;;;;;;7.70;7.20;;;22.10;78.30;;;;;;4982201;28;20516;-86
2021/08/19 11:07:53;;;;;;;8.07;7.43;;;22.80;77.10;;;;;;4983441;28;20495;-86
2021/08/19 11:10:30;;;;;;;7.63;7.23;;;24.70;74.80;;;;;;5007122;28;20299;-88
2021/08/19 11:13:27;;;;;;;7.57;7.10;;;23.20;69.20;;;;;;4986785;28;20424;-86
2021/08/19 11:15:52;;;;;;;7.63;7.20;;;21.60;67.10;;;;;;4981042;28;20901;-85
2021/08/19 11:18:34;;;;;;;8.13;7.53;;;24.00;70.80;;;;;;4980140;28;20437;-89
2021/08/19 11:21:05;;;;;;;7.70;7.20;;;22.60;69.40;;;;;;4978047;28;20390;-89
2021/08/19 11:23:41;;;;;;;7.23;6.73;;;21.20;69.40;;;;;;4981576;28;20889;-89
2021/08/19 11:26:19;;;;;;;6.00;5.63;;;24.40;76.60;;;;;;4976861;28;20417;-88
2021/08/19 11:28:48;;;;;;;6.50;6.20;;;22.40;72.70;;;;;;4978622;28;20810;-86
2021/08/19 11:31:19;;;;;;;7.00;6.40;;;22.60;69.40;;;;;;4979142;28;20425;-92
2021/08/19 11:34:03;;;;;;;5.83;5.33;;;23.30;69.00;;;;;;4985314;28;20505;-92
2021/08/19 11:36:30;;;;;;;4.70;4.60;;;25.70;69.40;;;;;;4983700;28;20425;-89
2021/08/19 11:39:06;;;;;;;4.53;4.23;;;25.70;68.60;;;;;;4981599;28;20445;-89
2021/08/19 11:41:33;;;;;;;4.90;4.70;;;22.70;65.10;;;;;;4943691;28;20541;-87
2021/08/19 11:44:00;;;;;;;4.90;4.70;;;25.40;69.00;;;;;;4974122;28;20766;-84
2021/08/19 11:46:27;;;;;;;4.57;4.27;;;24.20;66.30;;;;;;4976098;28;20417;-86
2021/08/19 11:48:59;;;;;;;4.63;4.43;;;25.40;68.30;;;;;;4977836;28;20472;-86
2021/08/19 11:51:50;;;;;;;5.60;5.27;;;25.10;70.50;;;;;;4986339;28;20409;-89
2021/08/19 11:54:16;;;;;;;4.27;4.07;;;22.50;69.80;;;;;;4985280;28;20414;-88
2021/08/19 11:56:45;;;;;;;4.10;4.00;;;22.60;73.30;;;;;;4964535;28;20413;-88
2021/08/19 11:59:13;;;;;;;5.20;5.00;;;22.60;72.10;;;;;;4980694;28;20173;-87
2021/08/19 12:01:49;;;;;;;4.17;4.07;;;23.70;71.70;;;;;;4962958;28;20432;-89
2021/08/19 12:04:22;;;;;;;4.67;4.37;;;20.20;67.50;;;;;;4984132;28;20507;-86
2021/08/19 12:06:47;;;;;;;4.40;4.20;;;22.20;74.40;;;;;;4983091;28;20421;-85
2021/08/19 12:09:15;;;;;;;4.80;4.60;;;24.70;77.10;;;;;;4983100;28;20469;-89
2021/08/19 12:11:48;;;;;;;5.20;4.80;;;22.30;78.30;;;;;;4948833;28;20253;-87
2021/08/19 12:14:14;;;;;;;5.63;5.10;;;20.40;69.30;;;;;;4945575;28;20528;-87
2021/08/19 12:16:59;;;;;;;4.37;4.20;;;22.10;76.80;;;;;;4966407;28;20500;-88
2021/08/19 12:19:31;;;;;;;4.30;4.20;;;21.60;72.00;;;;;;4960816;28;20457;-87
2021/08/19 12:22:06;;;;;;;5.07;4.67;;;21.50;72.30;;;;;;4964662;28;20417;-91
2021/08/19 12:25:07;;;;;;;5.20;5.00;;;20.30;66.80;;;;;;4963894;28;20496;-86
2021/08/19 12:27:42;;;;;;;4.10;3.90;;;22.10;74.70;;;;;;4965513;28;20416;-93
2021/08/19 12:30:11;;;;;;;4.47;4.37;;;23.10;72.60;;;;;;4983870;28;20916;-92
2021/08/19 12:32:37;;;;;;;4.27;4.17;;;20.90;72.40;;;;;;4985287;28;20432;-92
2021/08/19 12:35:06;;;;;;;3.73;3.63;;;24.30;73.00;;;;;;4976593;28;20811;-91
2021/08/19 12:37:34;;;;;;;4.20;4.03;;;22.40;70.70;;;;;;4965824;28;20436;-90
2021/08/19 12:40:18;;;;;;;4.30;4.20;;;20.70;68.20;;;;;;4966844;28;20429;-88
2021/08/19 12:42:46;;;;;;;4.20;4.07;;;23.00;74.30;;;;;;4965090;28;20413;-89
2021/08/19 12:45:20;;;;;;;5.00;4.80;;;21.90;72.30;;;;;;4981186;28;20452;-90
2021/08/19 12:48:02;;;;;;;5.67;5.30;;;21.90;73.40;;;;;;4965388;28;20962;-90
2021/08/19 12:50:31;;;;;;;5.03;4.83;;;21.60;74.20;;;;;;4952544;28;20418;-89
2021/08/19 12:53:08;;;;;;;4.80;4.57;;;21.60;74.30;;;;;;4965176;28;20406;-89
2021/08/19 12:55:34;;;;;;;5.70;5.40;;;21.30;75.20;;;;;;4967321;28;20923;-88
2021/08/19 12:58:00;;;;;;;5.10;4.80;;;21.70;75.30;;;;;;4958644;29;20472;-88
2021/08/19 13:00:28;;;;;;;5.13;4.93;;;20.80;79.50;;;;;;4957674;29;20489;-82
2021/08/19 13:02:56;;;;;;;5.50;5.13;;;23.60;78.20;;;;;;4943390;29;20181;-87
2021/08/19 13:05:24;;;;;;;4.43;4.33;;;20.80;75.50;;;;;;4966151;29;20402;-87
2021/08/19 13:08:02;;;;;;;5.90;5.33;;;20.90;74.80;;;;;;4939266;28;20454;-90
2021/08/19 13:10:30;;;;;;;7.87;7.30;;;23.20;80.40;;;;;;4974581;29;20417;-91
2021/08/19 13:12:59;;;;;;;5.80;5.47;;;25.20;82.80;;;;;;4966556;29;20415;-90
2021/08/19 13:15:29;;;;;;;6.73;5.10;;;21.20;76.30;;;;;;4975809;28;20540;-91
2021/08/19 13:17:54;;;;;;;5.30;5.00;;;20.80;77.30;;;;;;4946744;29;20434;-91
2021/08/19 13:20:23;;;;;;;5.70;5.40;;;23.50;83.90;;;;;;4955556;28;20524;-89
2021/08/19 13:22:49;;;;;;;4.97;4.60;;;20.10;77.10;;;;;;4965204;28;20197;-90
2021/08/19 13:25:15;;;;;;;5.23;5.00;;;22.70;84.90;;;;;;4981884;28;20428;-87
2021/08/19 13:27:46;;;;;;;4.37;4.20;;;22.80;80.50;;;;;;4963845;28;20489;-88
2021/08/19 13:30:15;;;;;;;6.10;5.70;;;21.00;80.30;;;;;;4979596;28;20504;-89
2021/08/19 13:32:54;;;;;;;4.20;4.10;;;22.80;82.20;;;;;;4964615;28;20972;-87
2021/08/19 13:35:26;;;;;;;4.93;4.50;;;21.30;77.10;;;;;;4977048;28;20472;-88
2021/08/19 13:37:52;;;;;;;5.17;4.67;;;23.60;82.00;;;;;;5002662;28;20436;-90
2021/08/19 13:40:25;;;;;;;5.33;5.00;;;21.20;80.00;;;;;;4983936;28;20810;-92
2021/08/19 13:42:52;;;;;;;4.33;4.10;;;21.80;75.60;;;;;;4986793;28;20191;-88
2021/08/19 13:45:20;;;;;;;4.23;3.93;;;21.80;77.60;;;;;;4984758;28;20424;-90
2021/08/19 13:47:49;;;;;;;6.20;5.70;;;24.30;80.60;;;;;;4983302;28;20517;-89
2021/08/19 13:50:25;;;;;;;4.77;4.43;;;23.40;76.60;;;;;;5005208;28;20420;-88
2021/08/19 13:53:09;;;;;;;5.07;4.77;;;22.30;70.80;;;;;;5002339;28;20536;-89
2021/08/19 13:55:38;;;;;;;4.73;4.53;;;22.70;70.30;;;;;;5005138;28;20488;-90
2021/08/19 13:58:16;;;;;;;5.67;5.37;;;23.60;76.40;;;;;;4990235;28;20423;-87
2021/08/19 14:00:45;;;;;;;4.63;4.23;;;22.40;75.70;;;;;;5006429;28;20413;-90
2021/08/19 14:03:47;;;;;;;;;;;;;;;;;;;;;
2021/08/19 14:06:27;;;;;;;4.57;4.37;;;21.60;70.40;;;;;;4996364;28;20559;-90
2021/08/19 14:08:55;;;;;;;5.13;4.90;;;25.70;80.60;;;;;;5007809;28;20474;-91
2021/08/19 14:11:21;;;;;;;3.90;3.80;;;21.90;78.10;;;;;;4988988;28;20469;-89
2021/08/19 14:14:03;;;;;;;4.50;4.40;;;20.40;71.20;;;;;;4988116;28;20420;-92
2021/08/19 14:16:30;;;;;;;5.40;4.90;;;24.10;75.40;;;;;;5007949;28;20208;-90
2021/08/19 14:19:06;;;;;;;4.30;4.10;;;22.40;74.90;;;;;;5007214;28;20469;-89
2021/08/19 14:21:32;;;;;;;4.57;4.27;;;19.90;70.20;;;;;;5008764;28;20427;-88
2021/08/19 14:23:59;;;;;;;5.40;5.10;;;21.20;76.80;;;;;;5026265;28;20450;-91
2021/08/19 14:26:27;;;;;;;4.70;4.60;;;22.50;75.80;;;;;;5003795;28;20587;-88
2021/08/19 14:29:19;;;;;;;4.53;4.23;;;21.00;74.60;;;;;;5024245;28;20462;-88
2021/08/19 14:32:11;;;;;;;3.47;3.40;;;21.50;75.80;;;;;;4998470;28;20436;-89
2021/08/19 14:34:37;;;;;;;3.50;3.40;;;22.00;77.00;;;;;;5014985;28;20474;-88
2021/08/19 14:37:07;;;;;;;4.10;3.90;;;21.80;77.60;;;;;;5009115;28;20424;-88
2021/08/19 14:39:33;;;;;;;4.43;2.77;;;23.40;77.00;;;;;;5010279;28;20168;-88
2021/08/19 14:42:05;;;;;;;3.70;3.50;;;21.10;73.30;;;;;;5006502;28;20427;-88
2021/08/19 14:44:31;;;;;;;3.30;3.20;;;23.00;77.90;;;;;;4990482;28;20527;-86
2021/08/19 14:47:11;;;;;;;2.77;2.77;;;19.80;74.20;;;;;;5025635;28;20412;-88